createdAt,value
2019-01-04T00:00:19.405Z,0.70
2019-01-04T00:02:45.655Z,0.80
2019-01-04T00:05:14.000Z,0.70
2019-01-04T00:07:40.243Z,0.80
2019-01-04T00:10:06.584Z,0.80
2019-01-04T00:12:32.839Z,0.80
2019-01-04T00:15:05.557Z,0.80
2019-01-04T00:17:32.250Z,0.50
2019-01-04T00:19:58.470Z,0.90
2019-01-04T00:22:24.731Z,0.90
2019-01-04T00:24:51.147Z,0.90
2019-01-04T00:27:17.374Z,0.80
2019-01-04T00:29:43.693Z,0.80
2019-01-04T00:32:09.923Z,0.90
2019-01-04T00:34:36.193Z,0.90
2019-01-04T00:37:02.441Z,0.80
2019-01-04T00:39:28.700Z,0.80
2019-01-04T00:42:00.979Z,0.80
2019-01-04T00:44:27.240Z,0.40
2019-01-04T00:46:53.472Z,0.80
2019-01-04T00:49:19.764Z,0.80
2019-01-04T00:51:45.964Z,0.80
2019-01-04T00:54:12.240Z,0.90
2019-01-04T00:56:54.178Z,0.90
2019-01-04T00:59:32.995Z,0.70
2019-01-04T01:02:09.061Z,0.60
2019-01-04T01:05:09.382Z,0.60
2019-01-04T01:08:13.133Z,0.60
2019-01-04T01:10:49.020Z,0.60
2019-01-04T01:13:35.951Z,0.60
2019-01-04T01:16:21.424Z,0.70
2019-01-04T01:19:14.063Z,0.80
2019-01-04T01:21:50.020Z,0.80
2019-01-04T01:24:52.266Z,0.70
2019-01-04T01:27:51.252Z,0.70
2019-01-04T01:30:29.863Z,0.80
2019-01-04T01:32:59.941Z,0.80
2019-01-04T01:35:50.106Z,0.80
2019-01-04T01:38:38.882Z,0.80
2019-01-04T01:41:18.198Z,0.90
2019-01-04T01:44:21.743Z,0.80
2019-01-04T01:46:51.833Z,0.80
2019-01-04T01:49:40.520Z,0.70
2019-01-04T01:52:10.643Z,0.60
2019-01-04T01:54:36.916Z,0.60
2019-01-04T01:57:03.172Z,0.50
2019-01-04T01:59:29.416Z,0.50
2019-01-04T02:01:55.659Z,0.50
2019-01-04T02:04:21.917Z,-1.30
2019-01-04T02:06:48.244Z,-0.50
2019-01-04T02:09:14.582Z,0.40
2019-01-04T02:11:40.830Z,0.40
2019-01-04T02:14:07.059Z,0.40
2019-01-04T02:16:33.402Z,0.40
2019-01-04T02:18:59.631Z,0.40
2019-01-04T02:21:25.896Z,0.40
2019-01-04T02:23:52.123Z,0.40
2019-01-04T02:26:18.800Z,0.40
2019-01-04T02:28:45.039Z,0.40
2019-01-04T02:31:11.313Z,0.30
2019-01-04T02:33:37.933Z,0.40
2019-01-04T02:36:04.475Z,0.40
2019-01-04T02:38:31.071Z,0.40
2019-01-04T02:40:57.332Z,0.40
2019-01-04T02:43:23.594Z,0.50
2019-01-04T02:45:49.854Z,0.40
2019-01-04T02:48:16.078Z,0.40
2019-01-04T02:50:42.352Z,0.40
2019-01-04T02:53:08.586Z,0.40
2019-01-04T02:55:35.185Z,0.40
2019-01-04T02:58:01.473Z,0.40
2019-01-04T03:00:27.698Z,0.30
2019-01-04T03:02:53.986Z,0.40
2019-01-04T03:05:20.253Z,0.30
2019-01-04T03:07:46.519Z,0.30
2019-01-04T03:10:12.726Z,0.30
2019-01-04T03:12:38.980Z,0.30
2019-01-04T03:15:05.590Z,0.30
2019-01-04T03:17:31.833Z,0.30
2019-01-04T03:19:58.399Z,0.30
2019-01-04T03:22:24.664Z,0.30
2019-01-04T03:24:54.002Z,0.30
2019-01-04T03:27:20.284Z,-0.50
2019-01-04T03:29:46.538Z,0.30
2019-01-04T03:32:12.796Z,0.30
2019-01-04T03:34:39.028Z,0.30
2019-01-04T03:37:05.282Z,0.20
2019-01-04T03:39:31.490Z,0.30
2019-01-04T03:41:57.826Z,0.30
2019-01-04T03:44:24.136Z,0.30
2019-01-04T03:46:50.386Z,0.30
2019-01-04T03:49:16.638Z,0.30
2019-01-04T03:51:43.572Z,0.30
2019-01-04T03:54:09.805Z,0.20
2019-01-04T03:56:36.028Z,0.20
2019-01-04T03:59:02.702Z,0.20
2019-01-04T04:01:28.886Z,0.10
2019-01-04T04:03:55.139Z,0.20
2019-01-04T04:06:21.778Z,0.10
2019-01-04T04:08:48.442Z,0.20
2019-01-04T04:11:14.655Z,0.10
2019-01-04T04:13:41.311Z,0.10
2019-01-04T04:16:07.543Z,0.10
2019-01-04T04:18:33.798Z,0.10
2019-01-04T04:21:00.026Z,0.10
2019-01-04T04:23:26.462Z,0.10
2019-01-04T04:25:53.183Z,0.10
2019-01-04T04:28:19.487Z,0.10
2019-01-04T04:30:45.724Z,0.10
2019-01-04T04:33:11.987Z,0.10
2019-01-04T04:35:38.216Z,0.10
2019-01-04T04:38:04.500Z,0.80
2019-01-04T04:40:30.881Z,0.10
2019-01-04T04:42:57.109Z,0.20
2019-01-04T04:45:23.366Z,0.10
2019-01-04T04:47:49.661Z,0.10
2019-01-04T04:50:15.928Z,0.10
2019-01-04T04:52:42.476Z,0.10
2019-01-04T04:55:08.730Z,0.20
2019-01-04T04:57:34.962Z,0.20
2019-01-04T05:00:01.620Z,0.20
2019-01-04T05:02:27.844Z,0.10
2019-01-04T05:04:54.102Z,0.10
2019-01-04T05:07:20.726Z,0.20
2019-01-04T05:09:46.970Z,0.20
2019-01-04T05:12:13.217Z,0.10
2019-01-04T05:14:40.846Z,0.20
2019-01-04T05:17:07.254Z,0.20
2019-01-04T05:19:33.907Z,0.20
2019-01-04T05:22:00.139Z,0.20
2019-01-04T05:24:26.440Z,0.20
2019-01-04T05:26:52.736Z,1.60
2019-01-04T05:29:18.967Z,0.30
2019-01-04T05:31:45.335Z,0.30
2019-01-04T05:34:11.572Z,0.30
2019-01-04T05:36:38.177Z,0.30
2019-01-04T05:39:05.209Z,0.30
2019-01-04T05:41:31.517Z,0.40
2019-01-04T05:43:57.759Z,0.40
2019-01-04T05:46:24.031Z,0.40
2019-01-04T05:48:50.261Z,0.40
2019-01-04T05:51:16.543Z,0.40
2019-01-04T05:53:42.779Z,0.40
2019-01-04T05:56:09.045Z,0.50
2019-01-04T05:58:35.319Z,0.40
2019-01-04T06:01:01.581Z,0.40
2019-01-04T06:03:28.218Z,0.40
2019-01-04T06:05:54.766Z,0.40
2019-01-04T06:08:20.990Z,0.40
2019-01-04T06:10:47.232Z,0.50
2019-01-04T06:13:13.524Z,2.10
2019-01-04T06:15:39.790Z,0.50
2019-01-04T06:18:06.069Z,0.50
2019-01-04T06:20:32.307Z,0.50
2019-01-04T06:22:58.591Z,0.50
2019-01-04T06:25:24.823Z,0.60
2019-01-04T06:27:51.248Z,0.60
2019-01-04T06:30:17.500Z,0.60
2019-01-04T06:32:43.764Z,0.60
2019-01-04T06:35:09.992Z,0.60
2019-01-04T06:37:36.262Z,0.70
2019-01-04T06:40:05.741Z,0.70
2019-01-04T06:42:32.023Z,0.60
2019-01-04T06:44:58.257Z,0.70
2019-01-04T06:47:24.488Z,0.60
2019-01-04T06:49:50.740Z,0.60
2019-01-04T06:52:16.970Z,0.60
2019-01-04T06:55:19.060Z,0.50
2019-01-04T06:57:45.350Z,0.50
2019-01-04T07:00:11.897Z,0.50
2019-01-04T07:02:38.198Z,0.50
2019-01-04T07:05:05.266Z,0.60
2019-01-04T07:07:31.531Z,0.60
2019-01-04T07:09:57.798Z,0.60
2019-01-04T07:12:24.055Z,0.60
2019-01-04T07:14:50.308Z,0.60
2019-01-04T07:17:16.551Z,1.10
2019-01-04T07:19:42.821Z,0.60
2019-01-04T07:22:09.078Z,0.60
2019-01-04T07:24:35.341Z,0.50
2019-01-04T07:27:01.598Z,0.50
2019-01-04T07:29:27.854Z,0.50
2019-01-04T07:31:54.082Z,0.60
2019-01-04T07:34:20.352Z,0.70
2019-01-04T07:36:46.615Z,0.70
2019-01-04T07:39:12.867Z,0.80
2019-01-04T07:41:39.090Z,0.80
2019-01-04T07:44:05.474Z,0.80
2019-01-04T07:46:32.042Z,0.80
2019-01-04T07:48:58.578Z,0.80
2019-01-04T07:51:24.870Z,0.90
2019-01-04T07:53:51.498Z,0.90
2019-01-04T07:56:17.762Z,1.00
2019-01-04T07:58:44.312Z,0.90
2019-01-04T08:01:10.634Z,0.90
2019-01-04T08:03:36.877Z,0.80
2019-01-04T08:06:03.135Z,0.90
2019-01-04T08:08:29.390Z,0.90
2019-01-04T08:10:56.008Z,0.90
2019-01-04T08:13:22.252Z,0.90
2019-01-04T08:15:48.848Z,0.90
2019-01-04T08:18:15.091Z,0.80
2019-01-04T08:20:41.378Z,0.80
2019-01-04T08:23:07.692Z,0.90
2019-01-04T08:25:33.995Z,0.90
2019-01-04T08:28:01.490Z,0.90
2019-01-04T08:30:28.080Z,1.10
2019-01-04T08:32:54.322Z,0.90
2019-01-04T08:35:20.572Z,1.00
2019-01-04T08:37:46.823Z,1.00
2019-01-04T08:40:13.095Z,1.00
2019-01-04T08:42:39.429Z,1.00
2019-01-04T08:45:06.666Z,0.90
2019-01-04T08:47:32.935Z,0.90
2019-01-04T08:49:59.195Z,1.00
2019-01-04T08:52:25.447Z,1.00
2019-01-04T08:54:51.782Z,1.00
2019-01-04T08:57:18.440Z,1.00
2019-01-04T08:59:44.676Z,1.20
2019-01-04T09:02:11.389Z,1.10
2019-01-04T09:04:37.718Z,1.20
2019-01-04T09:07:04.358Z,1.20
2019-01-04T09:09:30.902Z,1.20
2019-01-04T09:11:57.189Z,1.20
2019-01-04T09:14:23.759Z,1.20
2019-01-04T09:16:50.709Z,1.20
2019-01-04T09:19:16.944Z,1.30
2019-01-04T09:21:43.228Z,1.20
2019-01-04T09:24:09.452Z,1.30
2019-01-04T09:26:35.707Z,1.30
2019-01-04T09:29:02.120Z,1.30
2019-01-04T09:31:28.335Z,1.40
2019-01-04T09:33:54.961Z,1.30
2019-01-04T09:36:21.199Z,1.40
2019-01-04T09:38:49.164Z,1.30
2019-01-04T09:41:33.744Z,1.30
2019-01-04T09:44:00.939Z,1.40
2019-01-04T09:46:27.201Z,1.40
2019-01-04T09:48:53.497Z,1.40
2019-01-04T09:51:19.738Z,1.50
2019-01-04T09:53:47.336Z,1.50
2019-01-04T09:56:13.917Z,1.50
2019-01-04T09:58:40.172Z,1.50
2019-01-04T10:01:06.414Z,2.20
2019-01-04T10:03:32.677Z,1.60
2019-01-04T10:05:58.921Z,1.60
2019-01-04T10:08:25.299Z,1.70
2019-01-04T10:10:51.714Z,1.70
2019-01-04T10:13:18.448Z,1.50
2019-01-04T10:15:44.674Z,1.70
2019-01-04T10:18:10.905Z,1.80
2019-01-04T10:20:37.308Z,1.80
2019-01-04T10:23:03.532Z,1.80
2019-01-04T10:25:29.832Z,1.90
2019-01-04T10:27:56.099Z,1.90
2019-01-04T10:30:25.961Z,2.00
2019-01-04T10:32:52.206Z,2.10
2019-01-04T10:35:18.451Z,2.10
2019-01-04T10:37:44.726Z,2.10
2019-01-04T10:40:11.370Z,2.10
2019-01-04T10:42:38.226Z,2.10
2019-01-04T10:45:05.176Z,2.10
2019-01-04T10:47:31.517Z,2.20
2019-01-04T10:49:57.899Z,2.20
2019-01-04T10:52:24.319Z,2.20
2019-01-04T10:54:50.715Z,2.20
2019-01-04T10:57:17.016Z,2.20
2019-01-04T10:59:43.294Z,2.20
2019-01-04T11:02:09.667Z,2.30
2019-01-04T11:04:35.846Z,2.30
2019-01-04T11:07:02.337Z,2.30
2019-01-04T11:09:28.571Z,2.30
2019-01-04T11:11:55.334Z,2.30
2019-01-04T11:14:21.684Z,2.30
2019-01-04T11:16:47.905Z,2.40
2019-01-04T11:19:14.439Z,2.40
2019-01-04T11:21:40.807Z,2.40
2019-01-04T11:24:22.922Z,2.50
2019-01-04T11:26:50.762Z,2.50
2019-01-04T11:29:26.818Z,2.50
2019-01-04T11:32:05.767Z,2.50
2019-01-04T11:34:35.789Z,2.50
2019-01-04T11:37:24.225Z,2.50
2019-01-04T11:40:18.566Z,2.50
2019-01-04T11:42:48.653Z,1.20
2019-01-04T11:45:24.510Z,2.40
2019-01-04T11:48:12.882Z,2.40
2019-01-04T11:51:00.641Z,2.40
2019-01-04T11:53:26.970Z,2.50
2019-01-04T11:55:53.259Z,2.50
2019-01-04T11:58:19.507Z,2.50
2019-01-04T12:00:45.987Z,2.50
2019-01-04T12:03:12.250Z,2.50
2019-01-04T12:05:38.484Z,2.50
2019-01-04T12:08:05.129Z,2.60
2019-01-04T12:10:31.423Z,2.50
2019-01-04T12:12:58.045Z,2.60
2019-01-04T12:15:24.669Z,2.60
2019-01-04T12:17:50.936Z,2.60
2019-01-04T12:20:17.194Z,2.60
2019-01-04T12:22:43.451Z,2.70
2019-01-04T12:25:09.701Z,2.70
2019-01-04T12:27:36.109Z,2.70
2019-01-04T12:30:04.090Z,2.80
2019-01-04T12:32:30.732Z,2.80
2019-01-04T12:34:56.971Z,2.80
2019-01-04T12:37:23.297Z,2.80
2019-01-04T12:39:49.520Z,2.70
2019-01-04T12:42:15.851Z,2.70
2019-01-04T12:44:42.149Z,2.80
2019-01-04T12:47:08.721Z,2.80
2019-01-04T12:49:34.967Z,2.80
2019-01-04T12:52:01.370Z,2.70
2019-01-04T12:54:27.795Z,2.70
2019-01-04T12:56:54.001Z,2.60
2019-01-04T12:59:20.355Z,2.60
2019-01-04T13:01:46.659Z,2.70
2019-01-04T13:04:12.922Z,2.70
2019-01-04T13:06:39.167Z,2.70
2019-01-04T13:09:05.626Z,2.80
2019-01-04T13:11:31.899Z,2.80
2019-01-04T13:13:59.261Z,2.80
2019-01-04T13:16:25.879Z,2.80
2019-01-04T13:18:52.124Z,2.80
2019-01-04T13:21:18.506Z,2.80
2019-01-04T13:23:44.738Z,2.80
2019-01-04T13:26:11.027Z,2.90
2019-01-04T13:28:37.494Z,2.80
2019-01-04T13:31:03.739Z,2.90
2019-01-04T13:33:29.991Z,2.90
2019-01-04T13:35:56.246Z,2.90
2019-01-04T13:38:22.527Z,2.80
2019-01-04T13:40:48.789Z,2.80
2019-01-04T13:43:15.023Z,2.80
2019-01-04T13:45:41.698Z,2.80
2019-01-04T13:48:07.983Z,2.80
2019-01-04T13:50:34.236Z,2.80
2019-01-04T13:53:00.604Z,2.80
2019-01-04T13:55:26.974Z,2.80
2019-01-04T13:57:53.206Z,2.90
2019-01-04T14:00:19.583Z,2.90
2019-01-04T14:02:45.985Z,1.40
2019-01-04T14:05:12.331Z,3.00
2019-01-04T14:07:38.600Z,3.00
2019-01-04T14:10:07.800Z,3.00
2019-01-04T14:12:34.077Z,3.00
2019-01-04T14:15:00.945Z,2.90
2019-01-04T14:17:27.586Z,3.00
2019-01-04T14:19:53.849Z,3.00
2019-01-04T14:22:20.245Z,3.00
2019-01-04T14:24:46.575Z,3.00
2019-01-04T14:27:12.866Z,3.00
2019-01-04T14:29:39.200Z,3.00
2019-01-04T14:32:05.851Z,3.00
2019-01-04T14:34:32.084Z,3.00
2019-01-04T14:36:58.357Z,3.10
2019-01-04T14:39:24.749Z,3.10
2019-01-04T14:41:51.097Z,3.20
2019-01-04T14:44:17.414Z,3.20
2019-01-04T14:46:43.694Z,3.20
2019-01-04T14:49:10.064Z,3.30
2019-01-04T14:51:38.347Z,3.30
2019-01-04T14:54:04.595Z,3.30
2019-01-04T14:56:30.832Z,3.30
2019-01-04T14:58:57.097Z,3.30
2019-01-04T15:01:23.385Z,3.30
2019-01-04T15:03:49.951Z,3.30
2019-01-04T15:06:16.195Z,3.30
2019-01-04T15:08:42.457Z,3.30
2019-01-04T15:11:09.197Z,3.30
2019-01-04T15:13:35.461Z,3.30
2019-01-04T15:16:02.073Z,3.40
2019-01-04T15:18:28.359Z,3.40
2019-01-04T15:20:54.588Z,3.40
2019-01-04T15:23:20.861Z,3.40
2019-01-04T15:25:47.092Z,3.50
2019-01-04T15:28:13.484Z,3.50
2019-01-04T15:30:39.725Z,3.50
2019-01-04T15:33:06.067Z,3.50
2019-01-04T15:35:32.235Z,3.50
2019-01-04T15:37:58.511Z,3.50
2019-01-04T15:40:24.780Z,3.50
2019-01-04T15:42:51.025Z,3.60
2019-01-04T15:45:17.271Z,3.60
2019-01-04T15:47:43.547Z,3.50
2019-01-04T15:50:09.787Z,3.60
2019-01-04T15:52:36.433Z,3.60
2019-01-04T15:55:03.401Z,3.60
2019-01-04T15:57:29.835Z,3.60
2019-01-04T15:59:56.018Z,3.60
2019-01-04T16:02:22.560Z,3.70
2019-01-04T16:04:49.259Z,3.70
2019-01-04T16:07:15.502Z,3.70
2019-01-04T16:09:41.874Z,3.70
2019-01-04T16:12:08.082Z,3.80
2019-01-04T16:14:34.408Z,3.80
2019-01-04T16:17:00.633Z,3.80
2019-01-04T16:19:26.910Z,3.80
2019-01-04T16:21:53.226Z,3.80
2019-01-04T16:24:19.496Z,3.80
2019-01-04T16:26:45.720Z,3.90
2019-01-04T16:29:12.021Z,4.00
2019-01-04T16:31:38.254Z,4.00
2019-01-04T16:34:04.897Z,4.00
2019-01-04T16:36:31.159Z,4.00
2019-01-04T16:38:57.362Z,4.00
2019-01-04T16:41:24.027Z,4.00
2019-01-04T16:43:50.223Z,4.10
2019-01-04T16:46:16.626Z,4.00
2019-01-04T16:48:42.928Z,4.10
2019-01-04T16:51:09.222Z,4.10
2019-01-04T16:53:35.438Z,4.10
2019-01-04T16:56:01.781Z,4.10
2019-01-04T16:58:28.027Z,4.20
2019-01-04T17:00:54.349Z,4.10
2019-01-04T17:03:20.931Z,4.10
2019-01-04T17:05:47.261Z,4.10
2019-01-04T17:08:13.498Z,4.10
2019-01-04T17:10:39.823Z,4.10
2019-01-04T17:13:06.227Z,4.10
2019-01-04T17:15:32.470Z,4.00
2019-01-04T17:17:58.793Z,4.00
2019-01-04T17:20:25.068Z,3.50
2019-01-04T17:22:51.304Z,4.10
2019-01-04T17:25:17.582Z,4.00
2019-01-04T17:27:43.859Z,4.10
2019-01-04T17:30:10.323Z,4.10
2019-01-04T17:32:36.570Z,4.00
2019-01-04T17:35:04.012Z,4.10
2019-01-04T17:37:30.274Z,4.10
2019-01-04T17:39:56.547Z,4.10
2019-01-04T17:42:22.834Z,4.10
2019-01-04T17:44:49.078Z,4.10
2019-01-04T17:47:15.496Z,4.10
2019-01-04T17:49:41.753Z,4.20
2019-01-04T17:52:08.090Z,4.20
2019-01-04T17:54:34.353Z,4.20
2019-01-04T17:57:00.593Z,4.20
2019-01-04T17:59:27.186Z,4.20
2019-01-04T18:01:53.466Z,4.20
2019-01-04T18:04:19.813Z,4.20
2019-01-04T18:06:46.039Z,4.20
2019-01-04T18:09:12.294Z,4.20
2019-01-04T18:11:38.628Z,4.20
2019-01-04T18:14:05.015Z,4.20
2019-01-04T18:16:31.258Z,4.20
2019-01-04T18:18:57.558Z,4.20
2019-01-04T18:21:23.795Z,4.00
2019-01-04T18:23:50.051Z,4.30
2019-01-04T18:26:16.395Z,4.30
2019-01-04T18:28:42.677Z,4.30
2019-01-04T18:31:08.920Z,4.30
2019-01-04T18:33:35.179Z,4.30
2019-01-04T18:36:01.440Z,3.40
2019-01-04T18:38:27.701Z,4.20
2019-01-04T18:40:53.938Z,4.20
2019-01-04T18:43:20.239Z,4.20
2019-01-04T18:45:46.872Z,4.20
2019-01-04T18:48:13.506Z,4.20
2019-01-04T18:50:39.754Z,4.30
2019-01-04T18:53:06.034Z,4.60
2019-01-04T18:55:32.298Z,4.50
2019-01-04T18:57:58.829Z,4.50
2019-01-04T19:00:25.091Z,4.40
2019-01-04T19:02:51.711Z,4.40
2019-01-04T19:05:17.972Z,4.20
2019-01-04T19:07:45.018Z,4.20
2019-01-04T19:10:11.440Z,4.20
2019-01-04T19:12:38.531Z,4.20
2019-01-04T19:15:07.408Z,4.20
2019-01-04T19:17:33.948Z,4.10
2019-01-04T19:20:00.216Z,4.10
2019-01-04T19:22:26.435Z,4.10
2019-01-04T19:24:53.078Z,4.10
2019-01-04T19:27:19.373Z,4.20
2019-01-04T19:29:45.675Z,4.10
2019-01-04T19:32:12.051Z,4.10
2019-01-04T19:34:38.535Z,4.10
2019-01-04T19:37:04.973Z,4.10
2019-01-04T19:39:31.429Z,3.40
2019-01-04T19:41:57.845Z,4.20
2019-01-04T19:44:24.776Z,4.10
2019-01-04T19:46:51.286Z,4.20
2019-01-04T19:49:17.687Z,4.20
2019-01-04T19:51:44.239Z,4.20
2019-01-04T19:54:10.628Z,4.20
2019-01-04T19:56:37.469Z,4.20
2019-01-04T19:59:03.762Z,4.20
2019-01-04T20:01:30.668Z,4.30
2019-01-04T20:03:57.233Z,4.30
2019-01-04T20:06:44.224Z,4.30
2019-01-04T20:09:22.358Z,4.30
2019-01-04T20:12:27.117Z,4.30
2019-01-04T20:15:26.843Z,4.30
2019-01-04T20:18:01.060Z,4.30
2019-01-04T20:20:29.327Z,4.20
2019-01-04T20:23:06.455Z,4.20
2019-01-04T20:25:34.669Z,4.20
2019-01-04T20:28:02.950Z,4.30
2019-01-04T20:30:40.875Z,4.30
2019-01-04T20:33:09.086Z,4.40
2019-01-04T20:35:54.574Z,4.50
2019-01-04T20:38:25.450Z,4.40
2019-01-04T20:41:08.787Z,4.50
2019-01-04T20:43:54.005Z,4.50
2019-01-04T20:46:22.185Z,4.50
2019-01-04T20:48:53.572Z,4.50
2019-01-04T20:51:24.956Z,4.50
2019-01-04T20:54:05.091Z,4.50
2019-01-04T20:56:33.258Z,4.50
2019-01-04T20:59:18.440Z,4.40
2019-01-04T21:01:55.464Z,4.40
2019-01-04T21:04:40.453Z,4.40
2019-01-04T21:07:11.487Z,4.50
2019-01-04T21:09:39.635Z,4.50
2019-01-04T21:12:10.883Z,4.50
2019-01-04T21:14:48.372Z,4.40
2019-01-04T21:17:34.795Z,4.40
2019-01-04T21:20:19.775Z,4.40
2019-01-04T21:23:03.222Z,4.40
2019-01-04T21:25:40.611Z,4.40
2019-01-04T21:28:08.888Z,4.50
2019-01-04T21:30:40.152Z,4.40
2019-01-04T21:33:25.454Z,4.50
2019-01-04T21:35:53.669Z,4.50
2019-01-04T21:38:38.557Z,4.50
2019-01-04T21:41:09.682Z,4.50
2019-01-04T21:43:50.200Z,4.50
2019-01-04T21:46:35.332Z,4.60
2019-01-04T21:49:06.392Z,4.60
2019-01-04T21:51:34.534Z,4.60
2019-01-04T21:54:19.107Z,4.60
2019-01-04T21:57:04.017Z,4.60
2019-01-04T21:59:49.177Z,4.60
2019-01-04T22:02:17.287Z,4.60
2019-01-04T22:04:54.994Z,4.60
2019-01-04T22:07:41.310Z,4.60
2019-01-04T22:10:26.143Z,4.70
2019-01-04T22:13:00.316Z,4.70
2019-01-04T22:15:45.069Z,4.70
2019-01-04T22:18:13.574Z,4.70
2019-01-04T22:20:56.542Z,4.70
2019-01-04T22:23:41.592Z,4.70
2019-01-04T22:26:09.751Z,4.70
2019-01-04T22:28:44.219Z,4.80
2019-01-04T22:31:19.102Z,4.80
2019-01-04T22:34:04.280Z,4.80
2019-01-04T22:36:35.230Z,4.70
2019-01-04T22:39:19.709Z,4.70
2019-01-04T22:42:04.737Z,4.90
2019-01-04T22:44:49.809Z,4.70
2019-01-04T22:47:34.602Z,4.80
2019-01-04T22:50:21.342Z,4.80
2019-01-04T22:53:01.491Z,4.80
2019-01-04T22:55:41.687Z,4.80
2019-01-04T22:58:25.527Z,4.80
2019-01-04T23:00:54.190Z,4.80
2019-01-04T23:03:38.952Z,4.80
2019-01-04T23:06:13.028Z,4.80
2019-01-04T23:08:57.969Z,4.80
2019-01-04T23:11:28.994Z,4.80
2019-01-04T23:14:13.998Z,4.90
2019-01-04T23:16:58.981Z,4.90
2019-01-04T23:19:30.148Z,5.00
2019-01-04T23:22:16.634Z,5.00
2019-01-04T23:24:44.878Z,5.00
2019-01-04T23:27:29.783Z,5.00
2019-01-04T23:30:07.054Z,5.10
2019-01-04T23:32:44.530Z,5.00
2019-01-04T23:35:27.499Z,5.10
2019-01-04T23:38:07.552Z,5.00
2019-01-04T23:40:51.992Z,5.00
2019-01-04T23:43:26.210Z,5.00
2019-01-04T23:46:06.724Z,5.10
2019-01-04T23:48:40.522Z,5.10
2019-01-04T23:51:25.211Z,5.10
2019-01-04T23:53:59.268Z,5.20
2019-01-04T23:56:45.804Z,5.10
2019-01-04T23:59:25.958Z,5.20
